Latest Weather Observations for Applethorpe

IDQ60801

Issued at 11:35 pm EST Monday 24 November 2014 (issued every 30 minutes, with the page automatically refreshed every 10 minutes)

About weather observations | Map of weather stations | Latest weather observations for QLD | Other Formats
Station Details ID: 041175 Name: APPLETHORPE Lat: -28.62 Lon: 151.95 Height: 871.6 m
Data from the previous 72 hours. | See also: Recent months at Applethorpe
Date/Time
EST
Temp
°C
App
Temp
°C
Dew
Point
Rel
Hum
%
Delta-T
°C
Wind Press
QNH
hPa
Press
MSL
hPa
Rain
since 9 am
mm
Dir
 
Spd
km/h
Gust
km/h
Spd
kts
Gust
kts
24/11:30pm 21.4 20.5 15.8 70 3.5 N 15 20 8 11 1017.3 1013.7 0.0
24/11:00pm 21.9 21.2 15.4 66 4.0 N 13 22 7 12 1017.6 1014.0 0.0
24/10:30pm 22.5 21.8 14.3 59 5.0 N 11 19 6 10 1017.8 1014.2 0.0
24/10:00pm 19.1 20.2 13.5 70 3.3 CALM 0 7 0 4 1017.9 1014.3 0.0
24/09:30pm 19.9 20.6 13.5 66 3.8 E 2 4 1 2 1017.9 1014.3 0.0
24/09:00pm 20.6 21.0 11.4 55 5.3 CALM 0 6 0 3 1017.6 1014.0 0.0
24/08:30pm 20.7 20.9 10.7 52 5.7 CALM 0 0 0 0 1017.4 1013.8 0.0
24/08:00pm 24.1 22.0 6.7 32 9.4 NNE 7 13 4 7 1016.8 1013.2 0.0
24/07:30pm 24.8 22.6 6.2 30 10.0 N 7 11 4 6 1016.6 1013.0 0.0
24/07:00pm 25.8 23.3 6.7 29 10.4 N 9 11 5 6 1016.5 1012.9 0.0
24/06:30pm 26.7 24.9 7.1 28 10.8 N 6 9 3 5 1016.1 1012.4 0.0
24/06:00pm 28.5 25.9 6.3 24 12.2 N 9 17 5 9 1015.5 1011.9 0.0
24/05:30pm 30.1 26.9 5.3 21 13.5 N 11 19 6 10 1015.4 1011.8 0.0
24/05:00pm 30.4 26.6 4.0 18 14.1 N 13 20 7 11 1015.3 1011.7 0.0
24/04:30pm 30.8 28.2 6.0 21 13.7 N 9 15 5 8 1015.2 1011.6 0.0
24/04:00pm 31.8 29.8 7.3 21 13.9 N 7 13 4 7 1015.3 1011.7 0.0
24/03:30pm 31.4 28.9 8.0 23 13.4 N 11 20 6 11 1015.5 1011.9 0.0
24/03:00pm 32.1 30.5 8.9 23 13.5 NNE 7 15 4 8 1016.0 1012.3 0.0
24/02:30pm 31.3 29.4 9.1 25 12.9 N 9 22 5 12 1016.5 1012.9 0.0
24/02:00pm 31.7 30.5 10.3 26 12.7 N 7 17 4 9 1017.2 1013.5 0.0
24/01:30pm 30.7 30.2 12.6 33 11.1 N 7 19 4 10 1017.7 1014.1 0.0
24/01:00pm 31.0 30.9 14.9 37 10.2 N 9 20 5 11 1018.2 1014.7 0.0
24/12:30pm 30.0 30.1 15.4 41 9.3 NNW 9 15 5 8 1018.6 1015.0 0.0
24/12:00pm 29.0 29.7 16.2 46 8.2 NNE 7 15 4 8 1019.1 1015.5 0.0
24/11:30am 28.1 28.7 16.8 50 7.3 NNE 9 19 5 10 1019.7 1016.1 0.0
24/11:00am 27.0 27.8 17.3 55 6.3 N 9 15 5 8 1020.1 1016.5 0.0
24/10:30am 26.0 27.3 17.5 59 5.5 N 7 13 4 7 1020.5 1017.0 0.0
24/10:00am 24.6 25.5 17.5 64 4.6 NNW 9 13 5 7 1020.9 1017.3 0.0
24/09:30am 22.3 23.0 17.1 72 3.3 N 9 13 5 7 1021.1 1017.5 0.0
24/09:00am 23.4 23.9 17.5 69 3.8 N 11 15 6 8 1021.1 1017.5 9.6
24/08:30am 24.3 25.5 18.3 69 3.9 NNW 9 15 5 8 1021.0 1017.4 9.6
24/08:00am 24.4 25.0 17.7 66 4.3 N 11 17 6 9 1021.0 1017.4 9.6
24/07:30am 24.1 25.5 17.9 68 4.0 N 7 11 4 6 1020.7 1017.2 9.6
24/07:00am 22.8 24.2 17.7 73 3.3 N 7 11 4 6 1020.6 1017.1 9.6
24/06:30am 21.8 23.1 17.6 77 2.7 N 7 13 4 7 1020.4 1016.9 9.6
24/06:00am 19.7 22.5 18.0 90 1.1 CALM 0 0 0 0 1020.3 1016.8 9.6
24/05:30am 19.2 21.8 17.5 90 1.1 CALM 0 0 0 0 1020.1 1016.5 9.4
24/05:00am 17.7 20.1 16.9 95 0.5 CALM 0 0 0 0 1019.9 1016.3 9.4
24/04:30am 17.7 20.0 16.7 94 0.6 CALM 0 0 0 0 1019.3 1015.8 9.4
24/04:00am 17.6 19.5 16.8 95 0.5 ENE 2 4 1 2 1019.1 1015.5 9.4
24/03:30am 17.9 20.1 16.6 92 0.8 CALM 0 0 0 0 1019.0 1015.4 9.4
24/03:00am 18.5 20.8 16.7 89 1.1 CALM 0 0 0 0 1019.1 1015.5 9.4
24/02:30am 18.5 20.4 16.7 89 1.1 SSW 2 4 1 2 1019.4 1015.9 9.4
24/02:00am 18.7 20.2 16.6 87 1.3 SSW 4 7 2 4 1019.5 1016.0 9.4
24/01:30am 19.0 21.6 17.6 92 0.9 CALM 0 0 0 0 1019.4 1015.9 9.4
24/01:00am 18.9 21.5 17.5 92 0.9 CALM 0 0 0 0 1019.7 1016.1 9.4
24/12:30am 19.2 21.8 17.5 90 1.1 CALM 0 0 0 0 1019.9 1016.3 9.4
24/12:00am 19.8 21.8 17.9 89 1.2 ENE 4 4 2 2 1020.0 1016.4 9.4
 
Date/Time
EST
Temp
°C
App
Temp
°C
Dew
Point
Rel
Hum
%
Delta-T
°C
Wind Press
QNH
hPa
Press
MSL
hPa
Rain
since 9 am
mm
Dir
 
Spd
km/h
Gust
km/h
Spd
kts
Gust
kts
23/11:30pm 19.9 22.4 18.2 90 1.1 N 2 6 1 3 1020.4 1016.9 9.4
23/11:00pm 19.9 22.7 17.9 88 1.3 CALM 0 0 0 0 1020.3 1016.8 9.4
23/10:30pm 20.1 23.0 18.1 88 1.3 CALM 0 4 0 2 1020.2 1016.6 9.4
23/10:00pm 20.2 23.1 18.2 88 1.3 CALM 0 0 0 0 1020.2 1016.6 9.4
23/09:30pm 20.1 23.0 18.1 88 1.3 CALM 0 0 0 0 1020.4 1016.9 9.4
23/09:00pm 20.3 23.2 18.3 88 1.3 CALM 0 0 0 0 1020.4 1016.9 9.4
23/08:30pm 20.3 22.9 17.5 84 1.8 CALM 0 4 0 2 1020.6 1017.1 9.4
23/08:00pm 20.5 22.0 17.7 84 1.8 SW 6 22 3 12 1020.7 1017.2 9.4
23/07:30pm 20.3 22.0 18.1 87 1.4 SW 6 13 3 7 1020.3 1016.8 9.4
23/07:00pm 20.4 23.7 19.0 92 0.9 CALM 0 0 0 0 1019.8 1016.2 9.4
23/06:30pm 20.5 23.8 19.0 91 1.0 CALM 0 0 0 0 1019.4 1015.9 9.4
23/06:00pm 20.1 23.0 18.1 88 1.3 CALM 0 0 0 0 1018.7 1015.1 9.4
23/05:30pm 20.5 22.9 18.0 85 1.6 N 2 6 1 3 1018.1 1014.5 9.4
23/05:00pm 20.2 22.8 18.5 90 1.1 NNE 2 2 1 1 1017.9 1014.3 9.4
23/04:30pm 20.3 22.7 18.0 87 1.5 S 2 4 1 2 1018.2 1014.7 9.4
23/04:00pm 19.6 22.3 17.7 89 1.2 CALM 0 4 0 2 1018.2 1014.7 9.4
23/03:30pm 19.2 21.0 17.5 90 1.1 W 4 7 2 4 1018.7 1015.1 9.4
23/03:00pm 19.0 20.8 17.4 90 1.0 SE 4 9 2 5 1018.8 1015.2 9.4
23/02:30pm 19.5 19.4 16.1 81 2.1 NNW 11 19 6 10 1019.3 1015.8 9.0
23/02:00pm 21.3 20.5 18.0 81 2.1 ESE 19 33 10 18 1019.2 1015.6 1.6
23/01:59pm 22.4 21.4 17.6 74 3.1 ESE 19 41 10 22 1019.1 1015.5 0.6
23/01:36pm 27.8 26.1 15.8 48 7.6 ESE 19 35 10 19 1018.9 1015.3 0.0
23/01:30pm 32.9 34.9 19.1 44 9.3 N 7 17 4 9 1018.9 1015.3 0.0
23/01:00pm 32.6 33.0 19.1 44 9.1 NNW 15 24 8 13 1018.6 1015.0 0.0
23/12:30pm 33.2 34.7 19.0 43 9.6 W 9 19 5 10 1018.7 1015.1 0.0
23/12:00pm 33.6 35.3 19.3 43 9.7 WNW 9 20 5 11 1019.2 1015.6 0.0
23/11:30am 32.0 33.6 19.1 46 8.7 NNW 9 15 5 8 1019.9 1016.3 0.0
23/11:00am 31.7 33.8 19.4 48 8.3 NW 7 19 4 10 1020.5 1017.0 0.0
23/10:30am 30.4 32.0 19.1 50 7.6 NNW 9 15 5 8 1020.7 1017.2 0.0
23/10:00am 29.7 30.3 18.7 51 7.3 N 13 22 7 12 1020.7 1017.2 0.0
23/09:30am 29.8 30.7 18.3 50 7.6 N 11 20 6 11 1020.9 1017.3 0.0
23/09:00am 29.0 29.8 18.1 51 7.2 N 11 22 6 12 1021.1 1017.5 0.0
23/08:30am 27.4 27.7 17.9 56 6.2 N 13 22 7 12 1021.1 1017.5 0.0
23/08:00am 26.1 26.5 17.3 58 5.7 N 11 19 6 10 1020.9 1017.3 0.0
23/07:30am 25.0 25.4 17.2 62 5.0 N 11 17 6 9 1020.9 1017.3 0.0
23/07:00am 23.2 23.4 17.6 71 3.6 N 13 19 7 10 1020.7 1017.2 0.0
23/06:30am 22.7 23.7 18.6 77 2.7 N 11 17 6 9 1020.4 1016.9 0.0
23/06:00am 20.8 23.4 19.3 91 1.0 NNE 4 7 2 4 1020.1 1016.5 0.0
23/05:30am 19.3 22.4 18.7 96 0.4 CALM 0 0 0 0 1019.9 1016.3 0.0
23/05:00am 18.2 20.9 17.7 97 0.3 CALM 0 0 0 0 1019.5 1016.0 0.0
23/04:30am 18.2 21.0 17.9 98 0.2 CALM 0 0 0 0 1019.1 1015.5 0.0
23/04:00am 18.6 21.5 18.1 97 0.3 CALM 0 0 0 0 1018.7 1015.1 0.0
23/03:30am 18.6 21.5 18.1 97 0.3 CALM 0 0 0 0 1018.5 1014.9 0.0
23/03:00am 18.9 21.9 18.4 97 0.3 CALM 0 0 0 0 1018.5 1014.9 0.0
23/02:30am 19.1 22.1 18.5 96 0.4 CALM 0 0 0 0 1018.1 1014.5 0.0
23/02:00am 19.6 22.8 18.8 95 0.5 CALM 0 0 0 0 1017.9 1014.3 0.0
23/01:30am 20.1 23.6 19.5 96 0.4 CALM 0 4 0 2 1018.0 1014.4 0.0
23/01:00am 20.7 24.2 19.6 93 0.7 CALM 0 4 0 2 1018.1 1014.5 0.0
23/12:30am 21.1 23.6 19.9 93 0.8 ENE 6 9 3 5 1018.1 1014.5 0.0
23/12:00am 21.4 24.7 19.9 91 1.0 NE 2 4 1 2 1018.7 1015.1 0.0
 
Date/Time
EST
Temp
°C
App
Temp
°C
Dew
Point
Rel
Hum
%
Delta-T
°C
Wind Press
QNH
hPa
Press
MSL
hPa
Rain
since 9 am
mm
Dir
 
Spd
km/h
Gust
km/h
Spd
kts
Gust
kts
22/11:30pm 22.1 25.6 20.3 89 1.2 NE 2 6 1 3 1019.0 1015.4 0.0
22/11:00pm 22.7 25.8 20.3 86 1.6 NE 4 9 2 5 1019.0 1015.4 0.0
22/10:30pm 23.5 26.7 20.4 83 2.1 NE 4 7 2 4 1019.2 1015.6 0.0
22/10:00pm 24.3 26.9 20.1 77 2.8 ENE 6 11 3 6 1019.1 1015.5 0.0
22/09:30pm 25.1 27.6 19.9 73 3.5 ENE 6 11 3 6 1018.9 1015.3 0.0
22/09:00pm 26.0 28.4 19.7 68 4.2 NE 6 9 3 5 1018.9 1015.3 0.0
22/08:30pm 26.4 28.8 19.7 66 4.5 NE 6 9 3 5 1018.5 1014.9 0.0
22/08:00pm 27.0 28.9 19.0 61 5.3 NE 7 13 4 7 1018.1 1014.5 0.0
22/07:30pm 27.0 28.3 17.1 54 6.4 ENE 6 11 3 6 1017.4 1013.8 0.0
22/07:00pm 28.8 29.2 14.8 42 8.8 N 6 9 3 5 1016.8 1013.2 0.0
22/06:30pm 29.5 29.9 15.3 42 9.0 N 7 11 4 6 1016.5 1012.9 0.0
22/06:00pm 30.8 30.4 15.3 39 9.9 N 11 19 6 10 1016.0 1012.3 0.0
22/05:30pm 32.3 33.1 15.9 37 10.6 N 6 11 3 6 1015.6 1012.0 0.0
22/05:00pm 32.5 31.7 16.0 37 10.7 N 15 20 8 11 1015.3 1011.7 0.0
22/04:30pm 33.5 34.4 16.5 36 11.1 N 7 11 4 6 1015.1 1011.4 0.0
22/04:00pm 33.7 33.9 15.8 34 11.6 NW 9 19 5 10 1015.1 1011.4 0.0
22/03:30pm 34.0 34.4 15.4 32 12.0 W 7 15 4 8 1015.2 1011.6 0.0
22/03:00pm 34.0 34.1 15.6 33 11.9 NW 9 20 5 11 1015.4 1011.8 0.0
22/02:30pm 33.5 33.5 16.3 35 11.2 NNW 11 20 6 11 1015.6 1012.0 0.0
22/02:00pm 32.0 31.3 16.3 39 10.2 N 15 24 8 13 1016.1 1012.4 0.0
22/01:30pm 32.4 32.7 16.0 37 10.6 WNW 9 19 5 10 1016.5 1012.9 0.0
22/01:00pm 33.5 34.5 17.7 39 10.5 NNW 9 17 5 9 1016.7 1013.1 0.0
22/12:30pm 32.0 32.9 16.7 40 10.0 NNW 7 19 4 10 1016.9 1013.3 0.0
22/12:00pm 31.5 32.8 17.5 43 9.2 NW 7 19 4 10 1017.5 1013.9 0.0
22/11:30am 31.3 32.4 18.0 45 8.8 N 9 22 5 12 1018.0 1014.4 0.0
22/11:00am 30.9 31.6 17.1 43 9.0 NNW 9 20 5 11 1018.3 1014.8 0.0
22/10:30am 29.7 31.3 18.2 50 7.6 NW 7 17 4 9 1018.7 1015.1 0.0
22/10:00am 28.8 29.4 17.6 50 7.3 WNW 11 19 6 10 1018.9 1015.3 0.0
22/09:30am 27.9 29.1 18.3 56 6.3 NW 9 20 5 11 1019.0 1015.4 0.0
22/09:00am 27.8 28.9 18.1 55 6.4 WNW 9 19 5 10 1019.0 1015.4 0.2
22/08:30am 26.6 28.1 18.0 59 5.6 NW 7 15 4 8 1019.0 1015.4 0.2
22/08:00am 25.6 26.6 17.7 61 5.1 NNW 9 17 5 9 1019.0 1015.4 0.2
22/07:30am 25.1 26.2 17.9 64 4.7 NNW 9 15 5 8 1018.7 1015.1 0.2
22/07:00am 24.2 25.7 17.5 66 4.3 NW 6 13 3 7 1018.7 1015.1 0.2
22/06:30am 22.9 24.5 17.8 73 3.3 N 6 15 3 8 1018.5 1014.9 0.2
22/06:00am 21.7 24.2 18.1 80 2.3 WNW 2 4 1 2 1018.1 1014.5 0.2
22/05:30am 20.3 22.7 18.0 87 1.5 S 2 4 1 2 1017.8 1014.2 0.2
22/05:00am 19.6 22.3 17.7 89 1.2 CALM 0 4 0 2 1017.3 1013.7 0.2
22/04:30am 19.0 21.8 17.9 93 0.7 CALM 0 6 0 3 1016.9 1013.3 0.2
22/04:00am 18.7 21.0 17.8 94 0.6 NW 2 4 1 2 1016.5 1012.9 0.2
22/03:30am 19.0 21.6 17.6 92 0.9 CALM 0 0 0 0 1016.4 1012.8 0.2
22/03:00am 19.8 21.4 17.8 88 1.3 NNE 6 9 3 5 1016.2 1012.6 0.2
22/02:30am 19.6 22.1 17.2 86 1.5 CALM 0 0 0 0 1015.8 1012.2 0.2
22/02:00am 20.6 21.7 16.6 78 2.5 N 6 9 3 5 1015.7 1012.1 0.2
22/01:30am 19.2 21.5 16.8 86 1.5 CALM 0 0 0 0 1015.8 1012.2 0.2
22/01:00am 19.9 22.3 16.9 83 1.9 CALM 0 0 0 0 1015.8 1012.2 0.2
22/12:30am 21.0 22.6 16.9 77 2.6 SSW 4 7 2 4 1016.3 1012.7 0.2
22/12:00am 22.2 23.8 16.8 71 3.4 WNW 4 9 2 5 1016.6 1013.0 0.2

Other Formats:

Comma delimited format used in spreadsheet applications
http://www.bom.gov.au/fwo/IDQ60801/IDQ60801.94553.axf

JavaScript Object Notation format (JSON) in row-major order
http://www.bom.gov.au/fwo/IDQ60801/IDQ60801.94553.json